createdAt,value
2017-12-23T00:00:27.076Z,19.00
2017-12-23T00:02:53.242Z,17.70
2017-12-23T00:05:19.432Z,18.90
2017-12-23T00:07:45.620Z,18.33
2017-12-23T00:10:12.540Z,18.00
2017-12-23T00:12:38.765Z,19.20
2017-12-23T00:15:04.960Z,18.90
2017-12-23T00:17:31.109Z,18.10
2017-12-23T00:19:57.295Z,18.73
2017-12-23T00:22:24.256Z,18.50
2017-12-23T00:24:50.458Z,18.83
2017-12-23T00:27:17.388Z,20.80
2017-12-23T00:29:43.595Z,20.70
2017-12-23T00:32:09.805Z,19.63
2017-12-23T00:34:36.703Z,19.93
2017-12-23T00:37:02.928Z,19.90
2017-12-23T00:39:29.132Z,19.30
2017-12-23T00:41:56.028Z,21.70
2017-12-23T00:44:22.230Z,20.23
2017-12-23T00:46:48.505Z,19.33
2017-12-23T00:49:14.898Z,20.97
2017-12-23T00:51:41.112Z,20.57
2017-12-23T00:54:08.024Z,22.00
2017-12-23T00:56:34.207Z,21.20
2017-12-23T00:59:01.127Z,20.00
2017-12-23T01:01:27.302Z,21.10
2017-12-23T01:03:54.212Z,21.20
2017-12-23T01:06:20.424Z,23.17
2017-12-23T01:08:46.616Z,20.63
2017-12-23T01:11:13.537Z,23.50
2017-12-23T01:13:39.716Z,24.53
2017-12-23T01:16:05.943Z,27.30
2017-12-23T01:18:32.132Z,28.90
2017-12-23T01:20:58.329Z,28.47
2017-12-23T01:23:24.528Z,30.00
2017-12-23T01:25:50.737Z,28.83
2017-12-23T01:28:16.973Z,29.03
2017-12-23T01:30:43.209Z,31.67
2017-12-23T01:33:09.420Z,31.63
2017-12-23T01:35:35.614Z,30.77
2017-12-23T01:38:02.529Z,29.87
2017-12-23T01:40:28.708Z,29.13
2017-12-23T01:42:54.927Z,29.70
2017-12-23T01:45:21.852Z,29.43
2017-12-23T01:47:48.148Z,29.27
2017-12-23T01:50:14.595Z,28.10
2017-12-23T01:52:40.756Z,29.03
2017-12-23T01:55:06.926Z,32.50
2017-12-23T01:57:33.871Z,30.77
2017-12-23T02:00:00.824Z,30.33
2017-12-23T02:02:27.770Z,31.10
2017-12-23T02:04:54.698Z,28.07
2017-12-23T02:07:20.896Z,29.97
2017-12-23T02:09:47.080Z,26.77
2017-12-23T02:12:13.291Z,27.60
2017-12-23T02:14:39.481Z,28.53
2017-12-23T02:17:05.673Z,30.17
2017-12-23T02:19:31.875Z,27.07
2017-12-23T02:21:58.065Z,28.30
2017-12-23T02:24:24.977Z,28.60
2017-12-23T02:26:51.516Z,28.80
2017-12-23T02:29:17.691Z,28.80
2017-12-23T02:31:44.644Z,28.70
2017-12-23T02:34:12.458Z,26.27
2017-12-23T02:36:38.648Z,25.77
2017-12-23T02:39:05.577Z,25.60
2017-12-23T02:41:31.769Z,25.10
2017-12-23T02:43:57.940Z,27.80
2017-12-23T02:46:24.152Z,26.70
2017-12-23T02:48:50.432Z,24.93
2017-12-23T02:51:16.668Z,27.23
2017-12-23T02:53:43.584Z,28.10
2017-12-23T02:56:10.754Z,24.60
2017-12-23T02:58:36.948Z,23.10
2017-12-23T03:01:03.156Z,24.17
2017-12-23T03:03:29.388Z,22.43
2017-12-23T03:05:55.584Z,23.40
2017-12-23T03:08:21.785Z,22.57
2017-12-23T03:10:47.979Z,23.60
2017-12-23T03:13:14.904Z,21.70
2017-12-23T03:15:41.123Z,21.40
2017-12-23T03:18:07.352Z,21.20
2017-12-23T03:20:33.522Z,21.07
2017-12-23T03:23:00.456Z,22.63
2017-12-23T03:25:26.649Z,21.13
2017-12-23T03:27:52.844Z,21.73
2017-12-23T03:30:19.035Z,22.57
2017-12-23T03:32:50.179Z,20.33
2017-12-23T03:35:16.384Z,21.13
2017-12-23T03:37:42.572Z,19.70
2017-12-23T03:40:08.761Z,18.60
2017-12-23T03:42:34.964Z,16.90
2017-12-23T03:45:01.187Z,18.20
2017-12-23T03:47:27.404Z,18.20
2017-12-23T03:49:53.664Z,16.80
2017-12-23T03:52:20.046Z,17.50
2017-12-23T03:54:46.216Z,16.87
2017-12-23T03:57:12.384Z,17.00
2017-12-23T03:59:38.598Z,18.90
2017-12-23T04:02:05.568Z,17.87
2017-12-23T04:04:31.744Z,17.07
2017-12-23T04:06:57.907Z,17.40
2017-12-23T04:09:24.108Z,18.67
2017-12-23T04:11:50.306Z,16.53
2017-12-23T04:14:16.480Z,18.17
2017-12-23T04:16:42.673Z,16.70
2017-12-23T04:19:08.893Z,18.47
2017-12-23T04:21:35.808Z,18.10
2017-12-23T04:24:02.763Z,17.13
2017-12-23T04:26:28.933Z,16.83
2017-12-23T04:28:55.131Z,16.10
2017-12-23T04:31:22.072Z,16.70
2017-12-23T04:33:48.276Z,17.47
2017-12-23T04:36:14.463Z,16.23
2017-12-23T04:38:41.395Z,16.43
2017-12-23T04:41:07.564Z,16.57
2017-12-23T04:43:33.735Z,15.20
2017-12-23T04:45:59.956Z,15.93
2017-12-23T04:48:26.120Z,15.87
2017-12-23T04:50:54.048Z,15.73
2017-12-23T04:53:21.175Z,15.80
2017-12-23T04:55:48.128Z,15.70
2017-12-23T04:58:14.338Z,14.87
2017-12-23T05:00:41.292Z,14.03
2017-12-23T05:03:08.240Z,14.67
2017-12-23T05:05:34.412Z,15.37
2017-12-23T05:08:00.593Z,16.00
2017-12-23T05:10:26.772Z,14.17
2017-12-23T05:12:53.684Z,13.57
2017-12-23T05:15:19.884Z,12.63
2017-12-23T05:17:46.060Z,13.17
2017-12-23T05:20:12.976Z,14.03
2017-12-23T05:22:39.199Z,11.27
2017-12-23T05:25:05.388Z,12.33
2017-12-23T05:27:32.320Z,12.20
2017-12-23T05:29:58.673Z,12.77
2017-12-23T05:32:25.635Z,12.30
2017-12-23T05:34:51.830Z,14.03
2017-12-23T05:37:18.008Z,13.40
2017-12-23T05:39:44.185Z,11.90
2017-12-23T05:42:10.369Z,14.00
2017-12-23T05:44:39.022Z,13.93
2017-12-23T05:47:05.240Z,12.37
2017-12-23T05:49:31.424Z,13.37
2017-12-23T05:51:57.716Z,12.73
2017-12-23T05:54:23.960Z,12.73
2017-12-23T05:56:50.143Z,12.70
2017-12-23T05:59:16.373Z,13.53
2017-12-23T06:01:42.568Z,13.57
2017-12-23T06:04:09.507Z,13.30
2017-12-23T06:06:35.699Z,13.20
2017-12-23T06:09:01.889Z,13.30
2017-12-23T06:11:28.840Z,13.10
2017-12-23T06:13:55.025Z,12.30
2017-12-23T06:16:21.221Z,13.50
2017-12-23T06:18:47.384Z,12.50
2017-12-23T06:21:13.561Z,14.10
2017-12-23T06:23:39.745Z,11.67
2017-12-23T06:26:05.943Z,14.60
2017-12-23T06:28:32.140Z,13.33
2017-12-23T06:30:58.314Z,12.90
2017-12-23T06:33:24.517Z,13.83
2017-12-23T06:35:50.700Z,14.40
2017-12-23T06:38:17.676Z,15.43
2017-12-23T06:40:43.872Z,15.83
2017-12-23T06:43:10.103Z,15.67
2017-12-23T06:45:37.021Z,16.40
2017-12-23T06:48:03.196Z,14.67
2017-12-23T06:50:30.136Z,15.40
2017-12-23T06:52:56.376Z,16.73
2017-12-23T06:55:22.784Z,17.50
2017-12-23T06:57:48.955Z,16.90
2017-12-23T07:00:15.876Z,16.97
2017-12-23T07:02:42.057Z,20.33
2017-12-23T07:05:08.241Z,20.07
2017-12-23T07:07:34.428Z,19.97
2017-12-23T07:10:00.602Z,20.73
2017-12-23T07:12:26.816Z,21.43
2017-12-23T07:14:52.989Z,23.13
2017-12-23T07:17:19.916Z,22.03
2017-12-23T07:19:46.100Z,21.90
2017-12-23T07:22:12.291Z,23.40
2017-12-23T07:24:38.477Z,24.63
2017-12-23T07:27:04.785Z,27.00
2017-12-23T07:29:31.720Z,23.93
2017-12-23T07:31:58.672Z,25.53
2017-12-23T07:34:25.628Z,27.03
2017-12-23T07:36:51.822Z,23.23
2017-12-23T07:39:18.003Z,24.77
2017-12-23T07:41:44.948Z,24.80
2017-12-23T07:44:11.888Z,24.33
2017-12-23T07:46:38.829Z,22.90
2017-12-23T07:49:05.085Z,23.33
2017-12-23T07:51:31.281Z,26.00
2017-12-23T07:53:57.520Z,22.67
2017-12-23T07:56:23.762Z,22.30
2017-12-23T07:58:50.726Z,20.30
2017-12-23T08:01:16.913Z,20.37
2017-12-23T08:03:43.161Z,21.13
2017-12-23T08:06:09.336Z,20.90
2017-12-23T08:08:35.521Z,22.17
2017-12-23T08:11:01.700Z,20.20
2017-12-23T08:13:27.909Z,19.50
2017-12-23T08:15:54.083Z,21.40
2017-12-23T08:18:21.041Z,21.70
2017-12-23T08:20:47.971Z,20.37
2017-12-23T08:23:14.179Z,18.90
2017-12-23T08:25:40.386Z,21.33
2017-12-23T08:28:06.572Z,20.43
2017-12-23T08:30:32.765Z,22.50
2017-12-23T08:32:58.960Z,21.10
2017-12-23T08:35:25.879Z,21.50
2017-12-23T08:37:52.084Z,23.20
2017-12-23T08:40:18.323Z,21.30
2017-12-23T08:42:44.529Z,21.40
2017-12-23T08:45:11.448Z,23.53
2017-12-23T08:47:38.410Z,23.27
2017-12-23T08:50:05.339Z,24.00
2017-12-23T08:52:31.500Z,22.53
2017-12-23T08:54:58.613Z,20.17
2017-12-23T08:57:24.857Z,21.20
2017-12-23T08:59:51.076Z,20.63
2017-12-23T09:02:17.273Z,20.00
2017-12-23T09:04:44.188Z,18.93
2017-12-23T09:07:10.352Z,21.70
2017-12-23T09:09:36.576Z,19.67
2017-12-23T09:12:03.497Z,18.60
2017-12-23T09:14:29.672Z,19.53
2017-12-23T09:16:55.920Z,18.40
2017-12-23T09:19:22.100Z,19.03
2017-12-23T09:21:48.272Z,18.10
2017-12-23T09:24:15.206Z,18.70
2017-12-23T09:26:42.127Z,18.40
2017-12-23T09:29:08.296Z,18.60
2017-12-23T09:31:34.480Z,19.30
2017-12-23T09:34:00.664Z,20.10
2017-12-23T09:36:27.606Z,22.37
2017-12-23T09:38:54.550Z,21.27
2017-12-23T09:41:21.491Z,20.80
2017-12-23T09:43:47.684Z,20.20
2017-12-23T09:46:13.896Z,22.73
2017-12-23T09:48:40.816Z,20.63
2017-12-23T09:51:07.025Z,19.97
2017-12-23T09:53:33.228Z,19.77
2017-12-23T09:55:59.472Z,21.37
2017-12-23T09:58:25.669Z,22.47
2017-12-23T10:00:51.860Z,20.30
2017-12-23T10:03:18.097Z,21.13
2017-12-23T10:05:44.281Z,22.73
2017-12-23T10:08:10.496Z,20.43
2017-12-23T10:10:36.668Z,20.87
2017-12-23T10:13:03.567Z,21.73
2017-12-23T10:15:29.756Z,18.07
2017-12-23T10:17:55.935Z,18.90
2017-12-23T10:20:22.125Z,21.03
2017-12-23T10:22:48.361Z,20.93
2017-12-23T10:25:14.556Z,20.93
2017-12-23T10:27:41.496Z,23.17
2017-12-23T10:30:08.511Z,22.10
2017-12-23T10:32:34.734Z,20.57
2017-12-23T10:35:00.917Z,21.43
2017-12-23T10:37:27.860Z,20.87
2017-12-23T10:39:54.807Z,18.20
2017-12-23T10:42:21.007Z,18.77
2017-12-23T10:44:47.218Z,14.83
2017-12-23T10:47:14.132Z,15.60
2017-12-23T10:49:40.329Z,14.00
2017-12-23T10:52:06.548Z,17.73
2017-12-23T10:54:32.801Z,14.13
2017-12-23T10:56:59.776Z,15.43
2017-12-23T10:59:26.168Z,14.40
2017-12-23T11:01:52.356Z,14.07
2017-12-23T11:04:18.511Z,16.60
2017-12-23T11:06:45.460Z,15.20
2017-12-23T11:09:12.407Z,14.57
2017-12-23T11:11:38.632Z,14.40
2017-12-23T11:14:05.576Z,11.90
2017-12-23T11:16:31.756Z,12.00
2017-12-23T11:18:57.947Z,12.50
2017-12-23T11:21:24.152Z,10.30
2017-12-23T11:23:50.332Z,8.57
2017-12-23T11:26:17.281Z,8.30
2017-12-23T11:28:44.202Z,9.97
2017-12-23T11:31:10.363Z,8.47
2017-12-23T11:33:37.271Z,7.33
2017-12-23T11:36:03.468Z,9.37
2017-12-23T11:38:29.651Z,8.40
2017-12-23T11:40:55.820Z,11.53
2017-12-23T11:43:22.811Z,10.43
2017-12-23T11:45:49.001Z,10.20
2017-12-23T11:48:15.919Z,11.70
2017-12-23T11:50:42.109Z,10.50
2017-12-23T11:53:08.336Z,11.40
2017-12-23T11:55:35.234Z,12.97
2017-12-23T11:58:01.492Z,12.20
2017-12-23T12:00:27.877Z,10.87
2017-12-23T12:02:54.084Z,8.90
2017-12-23T12:05:20.328Z,9.67
2017-12-23T12:07:47.240Z,8.80
2017-12-23T12:10:13.432Z,8.13
2017-12-23T12:12:39.653Z,8.47
2017-12-23T12:15:05.824Z,8.37
2017-12-23T12:17:32.032Z,9.60
2017-12-23T12:19:58.260Z,7.83
2017-12-23T12:22:24.472Z,8.60
2017-12-23T12:24:51.421Z,7.80
2017-12-23T12:27:18.357Z,9.60
2017-12-23T12:29:45.304Z,9.13
2017-12-23T12:32:11.491Z,7.93
2017-12-23T12:34:37.699Z,8.50
2017-12-23T12:37:03.895Z,9.80
2017-12-23T12:39:30.100Z,8.93
2017-12-23T12:41:56.281Z,8.37
2017-12-23T12:44:23.216Z,8.50
2017-12-23T12:46:50.248Z,10.60
2017-12-23T12:49:16.472Z,10.53
2017-12-23T12:51:42.649Z,10.63
2017-12-23T12:54:09.565Z,11.47
2017-12-23T12:56:35.788Z,11.27
2017-12-23T12:59:02.080Z,11.60
2017-12-23T13:01:28.411Z,9.63
2017-12-23T13:03:55.345Z,10.93
2017-12-23T13:06:21.524Z,10.90
2017-12-23T13:08:48.432Z,10.20
2017-12-23T13:11:16.088Z,10.90
2017-12-23T13:13:42.265Z,10.77
2017-12-23T13:16:08.448Z,12.37
2017-12-23T13:18:34.620Z,11.00
2017-12-23T13:21:01.544Z,11.57
2017-12-23T13:23:27.790Z,12.10
2017-12-23T13:25:53.940Z,9.67
2017-12-23T13:28:20.852Z,11.30
2017-12-23T13:30:47.035Z,10.90
2017-12-23T13:33:13.229Z,10.87
2017-12-23T13:35:39.408Z,10.93
2017-12-23T13:38:05.601Z,10.37
2017-12-23T13:40:31.780Z,11.80
2017-12-23T13:42:57.952Z,12.10
2017-12-23T13:45:24.116Z,9.57
2017-12-23T13:47:51.052Z,10.70
2017-12-23T13:50:18.002Z,9.90
2017-12-23T13:52:44.932Z,9.57
2017-12-23T13:55:11.129Z,10.50
2017-12-23T13:57:37.301Z,9.90
2017-12-23T14:00:03.726Z,9.53
2017-12-23T14:02:29.941Z,10.67
2017-12-23T14:04:56.124Z,10.00
2017-12-23T14:07:23.100Z,9.70
2017-12-23T14:09:50.093Z,9.57
2017-12-23T14:12:16.248Z,11.10
2017-12-23T14:14:42.432Z,9.20
2017-12-23T14:17:08.642Z,9.80
2017-12-23T14:19:35.587Z,11.13
2017-12-23T14:22:02.561Z,11.17
2017-12-23T14:24:28.761Z,9.63
2017-12-23T14:26:54.972Z,9.80
2017-12-23T14:29:21.188Z,11.90
2017-12-23T14:31:47.369Z,9.03
2017-12-23T14:34:13.549Z,10.87
2017-12-23T14:36:39.726Z,10.63
2017-12-23T14:39:05.944Z,11.57
2017-12-23T14:41:32.128Z,11.90
2017-12-23T14:43:58.336Z,10.23
2017-12-23T14:46:24.533Z,10.37
2017-12-23T14:48:50.712Z,10.90
2017-12-23T14:51:17.637Z,10.63
2017-12-23T14:53:43.952Z,11.03
2017-12-23T14:56:10.137Z,10.00
2017-12-23T14:58:37.060Z,11.37
2017-12-23T15:01:03.369Z,10.30
2017-12-23T15:03:29.767Z,10.20
2017-12-23T15:05:56.684Z,11.80
2017-12-23T15:08:22.897Z,10.67
2017-12-23T15:10:49.112Z,10.70
2017-12-23T15:13:15.309Z,10.70
2017-12-23T15:15:42.279Z,11.80
2017-12-23T15:18:08.449Z,13.37
2017-12-23T15:20:34.624Z,13.73
2017-12-23T15:23:00.817Z,12.27
2017-12-23T15:25:27.008Z,15.17
2017-12-23T15:27:53.916Z,14.33
2017-12-23T15:30:20.098Z,17.73
2017-12-23T15:32:47.007Z,17.00
2017-12-23T15:35:13.181Z,16.77
2017-12-23T15:37:40.103Z,18.53
2017-12-23T15:40:07.025Z,18.10
2017-12-23T15:42:33.187Z,16.90
2017-12-23T15:45:00.113Z,18.27
2017-12-23T15:47:26.317Z,19.53
2017-12-23T15:49:52.482Z,16.17
2017-12-23T15:52:18.684Z,15.77
2017-12-23T15:54:44.920Z,14.43
2017-12-23T15:57:11.110Z,16.90
2017-12-23T15:59:38.072Z,15.10
2017-12-23T16:02:05.092Z,14.00
2017-12-23T16:04:31.484Z,12.83
2017-12-23T16:06:57.666Z,12.77
2017-12-23T16:09:23.836Z,12.93
2017-12-23T16:11:50.746Z,13.20
2017-12-23T16:14:16.928Z,15.57
2017-12-23T16:16:43.160Z,15.17
2017-12-23T16:19:09.337Z,16.83
2017-12-23T16:21:35.556Z,15.50
2017-12-23T16:24:01.729Z,15.73
2017-12-23T16:26:27.930Z,15.03
2017-12-23T16:28:54.130Z,14.67
2017-12-23T16:31:20.328Z,13.20
2017-12-23T16:33:46.508Z,12.90
2017-12-23T16:36:12.721Z,12.20
2017-12-23T16:38:38.924Z,11.53
2017-12-23T16:41:05.125Z,10.33
2017-12-23T16:43:31.304Z,10.00
2017-12-23T16:45:57.488Z,10.70
2017-12-23T16:48:23.692Z,10.10
2017-12-23T16:50:50.617Z,10.10
2017-12-23T16:53:16.796Z,10.50
2017-12-23T16:55:42.982Z,10.00
2017-12-23T16:58:09.925Z,9.27
2017-12-23T17:00:36.116Z,10.00
2017-12-23T17:03:02.564Z,11.90
2017-12-23T17:05:28.897Z,11.87
2017-12-23T17:07:55.080Z,10.03
2017-12-23T17:10:21.256Z,9.00
2017-12-23T17:12:47.489Z,9.80
2017-12-23T17:15:13.681Z,10.30
2017-12-23T17:17:39.865Z,11.00
2017-12-23T17:20:06.966Z,10.47
2017-12-23T17:22:33.150Z,12.70
2017-12-23T17:24:59.395Z,13.00
2017-12-23T17:27:26.284Z,13.40
2017-12-23T17:30:04.745Z,13.23
2017-12-23T17:32:30.956Z,12.33
2017-12-23T17:34:57.165Z,12.87
2017-12-23T17:37:23.373Z,14.03
2017-12-23T17:39:49.599Z,12.80
2017-12-23T17:42:15.855Z,11.87
2017-12-23T17:44:42.044Z,11.80
2017-12-23T17:47:08.253Z,11.90
2017-12-23T17:49:35.221Z,10.97
2017-12-23T17:52:01.400Z,11.53
2017-12-23T17:54:27.602Z,11.83
2017-12-23T17:56:53.824Z,12.57
2017-12-23T17:59:20.014Z,11.47
2017-12-23T18:01:46.213Z,12.67
2017-12-23T18:04:12.489Z,12.90
2017-12-23T18:06:40.487Z,11.87
2017-12-23T18:09:07.420Z,12.37
2017-12-23T18:11:34.364Z,13.90
2017-12-23T18:14:00.576Z,12.63
2017-12-23T18:16:26.830Z,12.97
2017-12-23T18:18:53.015Z,11.67
2017-12-23T18:21:19.236Z,13.00
2017-12-23T18:23:45.472Z,15.47
2017-12-23T18:26:13.611Z,12.77
2017-12-23T18:28:40.483Z,12.63
2017-12-23T18:31:07.412Z,13.20
2017-12-23T18:33:33.620Z,14.27
2017-12-23T18:35:59.826Z,14.00
2017-12-23T18:38:26.795Z,12.23
2017-12-23T18:40:53.688Z,13.07
2017-12-23T18:43:20.644Z,13.33
2017-12-23T18:45:47.590Z,11.30
2017-12-23T18:48:13.796Z,13.20
2017-12-23T18:50:40.031Z,14.33
2017-12-23T18:53:06.266Z,12.93
2017-12-23T18:55:32.460Z,13.83
2017-12-23T18:57:58.664Z,14.80
2017-12-23T19:00:24.872Z,14.30
2017-12-23T19:02:51.074Z,16.20
2017-12-23T19:05:17.304Z,15.10
2017-12-23T19:07:43.552Z,15.50
2017-12-23T19:10:09.776Z,15.00
2017-12-23T19:12:35.976Z,15.83
2017-12-23T19:15:02.919Z,16.70
2017-12-23T19:17:29.121Z,15.60
2017-12-23T19:19:55.320Z,17.40
2017-12-23T19:22:21.596Z,15.53
2017-12-23T19:24:47.809Z,16.67
2017-12-23T19:27:14.996Z,17.20
2017-12-23T19:29:41.234Z,16.60
2017-12-23T19:32:07.436Z,16.20
2017-12-23T19:34:33.664Z,17.20
2017-12-23T19:36:59.872Z,17.67
2017-12-23T19:39:26.786Z,17.43
2017-12-23T19:41:52.984Z,17.13
2017-12-23T19:44:19.197Z,18.50
2017-12-23T19:46:45.411Z,19.20
2017-12-23T19:49:12.337Z,17.70
2017-12-23T19:51:38.511Z,19.53
2017-12-23T19:54:04.735Z,18.70
2017-12-23T19:56:30.936Z,20.47
2017-12-23T19:58:57.133Z,19.63
2017-12-23T20:01:23.320Z,19.13
2017-12-23T20:03:49.500Z,18.53
2017-12-23T20:06:15.808Z,18.37
2017-12-23T20:08:42.137Z,19.40
2017-12-23T20:11:09.051Z,19.63
2017-12-23T20:13:35.276Z,19.13
2017-12-23T20:16:01.512Z,19.40
2017-12-23T20:18:27.701Z,19.87
2017-12-23T20:20:53.896Z,17.97
2017-12-23T20:23:20.121Z,17.77
2017-12-23T20:25:46.320Z,20.60
2017-12-23T20:28:12.516Z,20.60
2017-12-23T20:30:38.723Z,22.03
2017-12-23T20:33:04.920Z,19.63
2017-12-23T20:35:31.125Z,20.87
2017-12-23T20:37:58.079Z,21.10
2017-12-23T20:40:24.301Z,18.43
2017-12-23T20:42:50.504Z,20.80
2017-12-23T20:45:16.716Z,19.17
2017-12-23T20:47:43.614Z,18.63
2017-12-23T20:50:09.839Z,20.57
2017-12-23T20:52:36.028Z,19.87
2017-12-23T20:55:02.242Z,19.00
2017-12-23T20:57:29.168Z,19.80
2017-12-23T20:59:55.398Z,20.20
2017-12-23T21:02:21.590Z,19.03
2017-12-23T21:04:47.798Z,20.30
2017-12-23T21:07:14.138Z,19.40
2017-12-23T21:09:40.585Z,19.47
2017-12-23T21:12:07.569Z,19.53
2017-12-23T21:14:33.753Z,18.07
2017-12-23T21:17:00.654Z,18.37
2017-12-23T21:19:26.860Z,18.57
2017-12-23T21:21:53.032Z,19.40
2017-12-23T21:24:19.208Z,19.87
2017-12-23T21:26:46.150Z,19.33
2017-12-23T21:29:13.076Z,21.27
2017-12-23T21:31:39.993Z,20.17
2017-12-23T21:34:06.158Z,19.90
2017-12-23T21:36:32.332Z,20.10
2017-12-23T21:38:58.508Z,20.87
2017-12-23T21:41:24.683Z,18.97
2017-12-23T21:43:51.598Z,21.53
2017-12-23T21:46:17.773Z,20.50
2017-12-23T21:48:44.701Z,21.40
2017-12-23T21:51:10.897Z,20.10
2017-12-23T21:53:37.076Z,21.77
2017-12-23T21:56:03.273Z,20.80
2017-12-23T21:58:29.437Z,23.00
2017-12-23T22:00:55.613Z,22.93
2017-12-23T22:03:21.825Z,22.40
2017-12-23T22:05:48.765Z,22.73
2017-12-23T22:08:15.748Z,23.20
2017-12-23T22:10:41.972Z,21.87
2017-12-23T22:13:08.167Z,21.60
2017-12-23T22:15:34.328Z,21.00
2017-12-23T22:18:01.258Z,23.70
2017-12-23T22:20:27.436Z,22.50
2017-12-23T22:22:53.615Z,21.13
2017-12-23T22:25:19.786Z,24.23
2017-12-23T22:27:46.711Z,22.70
2017-12-23T22:30:12.902Z,23.67
2017-12-23T22:32:39.104Z,23.23
2017-12-23T22:35:06.016Z,22.27
2017-12-23T22:37:32.192Z,23.93
2017-12-23T22:39:58.392Z,22.23
2017-12-23T22:42:32.971Z,21.83
2017-12-23T22:44:59.168Z,22.00
2017-12-23T22:47:26.087Z,21.90
2017-12-23T22:49:52.268Z,20.00
2017-12-23T22:52:18.476Z,20.87
2017-12-23T22:54:45.404Z,22.70
2017-12-23T22:57:11.580Z,20.77
2017-12-23T22:59:38.514Z,21.60
2017-12-23T23:02:05.445Z,21.37
2017-12-23T23:04:31.634Z,20.57
2017-12-23T23:06:57.852Z,20.97
2017-12-23T23:09:24.863Z,22.70
2017-12-23T23:11:51.121Z,23.30
2017-12-23T23:14:18.088Z,19.53
2017-12-23T23:16:44.279Z,21.87
2017-12-23T23:19:10.456Z,22.77
2017-12-23T23:21:36.654Z,20.27
2017-12-23T23:24:02.836Z,21.37
2017-12-23T23:26:29.031Z,20.87
2017-12-23T23:28:55.232Z,20.30
2017-12-23T23:31:21.401Z,21.10
2017-12-23T23:33:48.338Z,23.50
2017-12-23T23:36:14.534Z,22.00
2017-12-23T23:38:40.728Z,21.87
2017-12-23T23:41:07.648Z,23.40
2017-12-23T23:43:33.858Z,22.33
2017-12-23T23:46:00.045Z,21.10
2017-12-23T23:48:26.220Z,20.27
2017-12-23T23:50:52.420Z,20.63
2017-12-23T23:53:19.345Z,20.93
2017-12-23T23:55:46.296Z,21.03
2017-12-23T23:58:12.483Z,22.60
